Time;durP1;ratioP1;P1;durP2;ratioP2;P2;SDS_P1;SDS_P2;PMS_P1;PMS_P2;Temp;Humidity;BMP_temperature;BMP_pressure;BME280_temperature;BME280_humidity;BME280_pressure;Samples;Min_cycle;Max_cycle;Signal;HPM_P1;HPM_P2
2022/04/09 00:01:29;;;;;;;3.50;1.10;;;;;;;13.28;93.27;98116.78;4356259;32;34674;-76
2022/04/09 00:04:16;;;;;;;1.90;0.95;;;;;;;11.87;100.00;98117.81;4357674;32;35229;-76
2022/04/09 00:07:01;;;;;;;3.50;0.95;;;;;;;11.88;100.00;98099.38;4355882;32;34632;-76
2022/04/09 00:09:48;;;;;;;1.85;1.10;;;;;;;12.82;98.62;98094.69;4346789;32;35016;-76
2022/04/09 00:12:34;;;;;;;5.12;1.20;;;;;;;13.23;95.86;98089.53;4359547;32;34720;-76
2022/04/09 00:15:20;;;;;;;1.62;0.95;;;;;;;12.86;97.35;98086.50;4343381;33;33693;-76
2022/04/09 00:18:06;;;;;;;6.05;1.20;;;;;;;12.62;99.37;98082.13;4342003;33;34590;-76
2022/04/09 00:20:53;;;;;;;2.12;1.15;;;;;;;13.02;97.37;98077.00;4341539;33;34864;-76
2022/04/09 00:23:39;;;;;;;4.03;1.37;;;;;;;12.86;98.21;98067.25;4343503;33;34732;-75
2022/04/09 00:26:25;;;;;;;4.12;1.27;;;;;;;13.20;95.95;98054.53;4342580;33;34222;-75
2022/04/09 00:29:11;;;;;;;4.12;1.20;;;;;;;12.82;98.35;98059.75;4343397;33;34597;-76
2022/04/09 00:31:58;;;;;;;4.57;1.20;;;;;;;13.41;95.13;98060.44;4341681;33;34992;-75
2022/04/09 00:34:44;;;;;;;3.65;1.00;;;;;;;13.65;92.64;98052.94;4344166;33;35737;-75
2022/04/09 00:37:31;;;;;;;1.85;0.90;;;;;;;13.72;90.89;98048.34;4342156;33;35327;-75
2022/04/09 00:40:18;;;;;;;2.47;1.30;;;;;;;13.63;91.56;98044.25;4343146;33;34497;-75
2022/04/09 00:43:05;;;;;;;3.10;1.40;;;;;;;12.91;95.32;98037.53;4342139;33;36084;-75
2022/04/09 00:45:51;;;;;;;4.35;1.40;;;;;;;11.63;100.00;98052.13;4341663;33;34436;-75
2022/04/09 00:48:39;;;;;;;2.40;1.25;;;;;;;10.87;100.00;98048.66;4346141;33;35086;-76
2022/04/09 00:51:25;;;;;;;3.20;1.30;;;;;;;11.79;100.00;98050.16;4345586;33;35201;-75
2022/04/09 00:54:13;;;;;;;2.03;0.98;;;;;;;12.16;100.00;98055.31;4335262;33;35086;-76
2022/04/09 00:57:03;;;;;;;6.18;1.45;;;;;;;12.13;100.00;98075.25;4342828;33;34697;-76
2022/04/09 00:59:50;;;;;;;3.00;1.67;;;;;;;11.48;100.00;98089.41;4345203;33;34203;-75
2022/04/09 01:02:40;;;;;;;3.05;1.45;;;;;;;11.74;100.00;98090.78;4341760;33;34781;-75
2022/04/09 01:05:26;;;;;;;5.85;1.73;;;;;;;11.19;100.00;98105.13;4345240;33;34588;-75
2022/04/09 01:08:13;;;;;;;5.07;1.83;;;;;;;10.56;100.00;98119.47;4341934;33;34715;-75
2022/04/09 01:11:00;;;;;;;3.53;1.58;;;;;;;10.89;100.00;98110.19;4344072;33;34175;-75
2022/04/09 01:13:46;;;;;;;5.00;1.60;;;;;;;11.64;100.00;98070.97;4347129;32;34457;-75
2022/04/09 01:16:33;;;;;;;2.50;1.37;;;;;;;11.73;100.00;98050.78;4351741;32;34942;-75
2022/04/09 01:19:20;;;;;;;2.47;1.10;;;;;;;12.06;100.00;98042.91;4350146;32;35972;-75
2022/04/09 01:22:07;;;;;;;3.85;1.30;;;;;;;11.85;100.00;98061.66;4359106;32;35115;-75
2022/04/09 01:24:53;;;;;;;3.15;1.20;;;;;;;12.04;100.00;98034.28;4360191;32;34368;-74
2022/04/09 01:27:39;;;;;;;4.22;1.10;;;;;;;11.44;100.00;98033.66;4358817;32;35948;-74
2022/04/09 01:30:26;;;;;;;3.22;1.00;;;;;;;11.63;100.00;98058.41;4346360;32;34789;-76
2022/04/09 01:33:16;;;;;;;5.55;1.10;;;;;;;11.08;100.00;98062.16;4358011;32;35023;-75
2022/04/09 01:36:03;;;;;;;3.62;1.50;;;;;;;11.63;100.00;98085.03;4345574;32;34663;-75
2022/04/09 01:38:49;;;;;;;3.80;1.30;;;;;;;10.66;100.00;98099.00;4357980;32;35726;-75
2022/04/09 01:41:36;;;;;;;5.10;1.60;;;;;;;10.82;100.00;98098.28;4345608;32;35970;-75
2022/04/09 01:44:22;;;;;;;2.40;1.12;;;;;;;11.67;100.00;98089.47;4357384;32;34820;-75
2022/04/09 01:47:08;;;;;;;4.62;1.42;;;;;;;11.51;100.00;98094.16;4356841;32;34655;-75
2022/04/09 01:49:55;;;;;;;3.65;1.52;;;;;;;11.62;100.00;98099.91;4359637;32;33861;-74
2022/04/09 01:52:41;;;;;;;5.57;1.17;;;;;;;11.40;100.00;98101.34;4356452;32;35349;-76
2022/04/09 01:55:27;;;;;;;4.18;1.00;;;;;;;11.65;100.00;98091.78;4338788;32;34136;-75
2022/04/09 01:58:14;;;;;;;4.70;1.33;;;;;;;11.39;100.00;98080.56;4340466;32;35585;-76
2022/04/09 02:01:01;;;;;;;2.72;1.10;;;;;;;11.23;100.00;98069.56;4360113;32;35047;-76
2022/04/09 02:03:48;;;;;;;4.75;1.00;;;;;;;11.62;100.00;98076.03;4361295;32;35566;-78
2022/04/09 02:06:34;;;;;;;3.37;1.20;;;;;;;11.19;100.00;98066.75;4356087;32;34195;-77
2022/04/09 02:09:21;;;;;;;3.30;1.30;;;;;;;10.80;100.00;98066.53;4360537;32;35660;-77
2022/04/09 02:12:07;;;;;;;4.00;0.85;;;;;;;10.89;100.00;98066.34;4356516;32;35913;-76
2022/04/09 02:14:54;;;;;;;5.30;1.73;;;;;;;10.62;100.00;98068.00;4359673;32;35091;-76
2022/04/09 02:17:41;;;;;;;4.72;1.40;;;;;;;10.70;100.00;98071.69;4358935;32;34182;-77
2022/04/09 02:20:28;;;;;;;3.70;1.50;;;;;;;10.80;100.00;98054.78;4348312;32;35708;-76
2022/04/09 02:23:15;;;;;;;5.30;1.48;;;;;;;10.69;100.00;98061.91;4345626;32;35668;-76
2022/04/09 02:26:01;;;;;;;5.12;1.60;;;;;;;10.91;100.00;98049.56;4359531;32;34971;-76
2022/04/09 02:28:49;;;;;;;5.57;1.60;;;;;;;10.63;100.00;98050.41;4359866;32;34264;-76
2022/04/09 02:31:37;;;;;;;5.55;1.90;;;;;;;11.01;100.00;98054.53;4360298;32;34644;-74
2022/04/09 02:34:23;;;;;;;4.53;1.92;;;;;;;10.89;100.00;98063.63;4358737;32;34753;-76
2022/04/09 02:37:10;;;;;;;4.90;1.83;;;;;;;10.86;100.00;98064.31;4349599;32;34705;-76
2022/04/09 02:39:57;;;;;;;10.00;2.53;;;;;;;10.48;100.00;98079.34;4349022;32;33731;-76
2022/04/09 02:42:43;;;;;;;5.68;2.30;;;;;;;10.59;100.00;98076.91;4346063;32;34739;-75
2022/04/09 02:45:29;;;;;;;7.45;2.60;;;;;;;10.60;100.00;98083.19;4346757;32;34978;-75
2022/04/09 02:48:16;;;;;;;6.35;2.37;;;;;;;10.46;100.00;98091.78;4346431;32;34295;-75
2022/04/09 02:51:03;;;;;;;8.05;2.70;;;;;;;10.67;100.00;98097.88;4359651;32;33842;-76
2022/04/09 02:53:50;;;;;;;6.97;3.08;;;;;;;10.64;100.00;98106.75;4360351;32;34192;-76
2022/04/09 02:56:37;;;;;;;6.65;2.70;;;;;;;10.64;100.00;98104.03;4355245;32;35983;-76
2022/04/09 02:59:23;;;;;;;5.10;2.60;;;;;;;10.56;100.00;98094.03;4345363;32;34556;-76
2022/04/09 03:02:10;;;;;;;6.93;2.42;;;;;;;10.91;100.00;98088.72;4360548;32;35129;-75
2022/04/09 03:04:56;;;;;;;6.35;2.60;;;;;;;10.86;100.00;98101.88;4358630;32;35284;-76
2022/04/09 03:07:43;;;;;;;4.18;2.12;;;;;;;10.93;100.00;98099.31;4358764;32;34838;-76
2022/04/09 03:10:29;;;;;;;6.40;2.42;;;;;;;10.60;100.00;98094.13;4337368;32;34155;-76
2022/04/09 03:13:15;;;;;;;5.62;2.70;;;;;;;10.55;100.00;98106.13;4358570;32;33690;-76
2022/04/09 03:16:02;;;;;;;7.07;2.10;;;;;;;10.54;100.00;98096.31;4356162;32;35519;-76
2022/04/09 03:18:49;;;;;;;5.03;2.10;;;;;;;10.56;100.00;98089.34;4358929;32;35980;-76
2022/04/09 03:21:35;;;;;;;5.78;1.85;;;;;;;10.70;100.00;98104.56;4349250;32;34338;-75
2022/04/09 03:24:21;;;;;;;5.28;1.85;;;;;;;10.75;100.00;98129.78;4356241;32;33149;-76
2022/04/09 03:27:08;;;;;;;4.25;1.80;;;;;;;11.37;100.00;98126.72;4354495;32;34721;-77
2022/04/09 03:29:54;;;;;;;2.90;1.37;;;;;;;10.95;100.00;98105.25;4347436;32;34477;-76
2022/04/09 03:32:41;;;;;;;2.83;1.27;;;;;;;10.96;100.00;98112.34;4348706;32;34598;-76
2022/04/09 03:35:28;;;;;;;2.58;1.15;;;;;;;11.23;100.00;98103.25;4349094;32;34042;-76
2022/04/09 03:38:14;;;;;;;4.25;1.25;;;;;;;11.44;100.00;98089.31;4347816;32;34595;-76
2022/04/09 03:41:02;;;;;;;1.83;1.10;;;;;;;10.53;100.00;98087.31;4359540;32;36043;-76
2022/04/09 03:43:51;;;;;;;2.95;1.15;;;;;;;11.38;100.00;98087.16;4348755;32;35431;-76
2022/04/09 03:46:44;;;;;;;2.55;0.77;;;;;;;10.60;100.00;98107.81;4345711;32;34150;-75
2022/04/09 03:49:30;;;;;;;3.05;0.80;;;;;;;10.83;100.00;98119.81;4359446;32;34605;-76
2022/04/09 03:52:17;;;;;;;4.50;0.75;;;;;;;11.37;100.00;98100.09;4360182;32;35081;-76
2022/04/09 03:55:03;;;;;;;2.08;0.98;;;;;;;11.11;100.00;98097.06;4356582;32;35079;-76
2022/04/09 03:57:50;;;;;;;4.22;0.70;;;;;;;11.74;100.00;98093.53;4348404;32;34764;-76
2022/04/09 04:30:37;;;;;;;1.30;0.60;;;;;;;11.89;99.93;98060.59;4316104;31;20154;-73
2022/04/09 04:33:25;;;;;;;2.20;0.65;;;;;;;12.22;96.45;98053.06;4352310;32;34769;-72
2022/04/09 04:36:11;;;;;;;2.60;0.68;;;;;;;12.45;95.12;98053.94;4353747;32;34793;-71
2022/04/09 04:38:58;;;;;;;2.75;0.57;;;;;;;12.33;95.09;98043.09;4355300;32;35429;-73
2022/04/09 04:41:44;;;;;;;0.85;0.47;;;;;;;11.93;97.02;98052.44;4354134;32;35793;-72
2022/04/09 04:44:32;;;;;;;4.18;0.65;;;;;;;12.31;95.57;98042.66;4355275;32;35506;-73
2022/04/09 04:47:19;;;;;;;1.10;0.50;;;;;;;12.23;95.66;98036.22;4350209;32;34348;-72
2022/04/09 04:50:05;;;;;;;0.75;0.40;;;;;;;11.04;100.00;98026.41;4341383;32;34589;-73
2022/04/09 04:52:52;;;;;;;1.98;0.60;;;;;;;11.89;99.61;98011.19;4354640;32;34945;-73
2022/04/09 04:55:39;;;;;;;2.55;1.20;;;;;;;11.54;100.00;98002.94;4353867;32;34097;-72
2022/04/09 04:58:26;;;;;;;8.23;1.77;;;;;;;11.79;98.35;97994.47;4353937;32;34271;-72
2022/04/09 05:01:13;;;;;;;4.37;2.30;;;;;;;11.42;100.00;97970.16;4345875;32;35962;-73
2022/04/09 05:04:00;;;;;;;6.20;2.70;;;;;;;11.21;100.00;97963.03;4349383;32;35069;-73
2022/04/09 05:06:49;;;;;;;3.90;2.20;;;;;;;11.14;100.00;97962.84;4342298;32;35483;-73
2022/04/09 05:09:35;;;;;;;5.43;2.30;;;;;;;11.01;100.00;97973.13;4343591;32;33756;-73
2022/04/09 05:12:21;;;;;;;3.95;1.80;;;;;;;10.89;100.00;97969.66;4360439;32;34774;-72
2022/04/09 05:15:10;;;;;;;5.75;2.35;;;;;;;10.48;100.00;97955.31;4349391;32;35892;-72
2022/04/09 05:17:57;;;;;;;4.53;1.85;;;;;;;10.18;100.00;97958.41;4353292;32;35793;-73
2022/04/09 05:20:45;;;;;;;4.75;1.40;;;;;;;10.28;100.00;97952.47;4347492;32;33833;-72
2022/04/09 05:23:31;;;;;;;3.58;1.70;;;;;;;10.28;100.00;97946.19;4354803;32;36158;-72
2022/04/09 05:26:17;;;;;;;2.67;1.30;;;;;;;10.04;100.00;97947.06;4356787;32;35021;-72
2022/04/09 05:29:05;;;;;;;2.40;1.60;;;;;;;10.00;100.00;97954.38;4355616;32;34693;-71
2022/04/09 05:31:52;;;;;;;3.55;1.25;;;;;;;10.10;100.00;97962.09;4356221;32;34209;-71
2022/04/09 05:34:39;;;;;;;2.78;1.30;;;;;;;9.84;100.00;97973.47;4356580;32;34384;-71
2022/04/09 05:37:28;;;;;;;4.03;1.55;;;;;;;9.89;100.00;97971.28;4356824;32;34383;-71
2022/04/09 05:40:16;;;;;;;4.18;1.85;;;;;;;9.85;100.00;97966.87;4352322;32;34184;-71
2022/04/09 05:43:02;;;;;;;4.78;1.80;;;;;;;10.15;100.00;97961.84;4348964;32;34236;-72
2022/04/09 05:45:49;;;;;;;3.60;1.80;;;;;;;10.26;100.00;97981.28;4356925;32;35242;-71
2022/04/09 05:48:36;;;;;;;4.60;1.80;;;;;;;9.95;100.00;97984.72;4333857;32;35686;-72
2022/04/09 05:51:24;;;;;;;3.50;2.30;;;;;;;9.86;100.00;97996.59;4344197;32;34641;-71
2022/04/09 05:54:10;;;;;;;3.90;1.80;;;;;;;10.01;100.00;97997.00;4357851;32;34215;-71
2022/04/09 05:56:59;;;;;;;3.87;1.73;;;;;;;10.08;100.00;98008.19;4343742;32;34757;-71
2022/04/09 05:59:46;;;;;;;2.85;1.25;;;;;;;10.03;100.00;98002.94;4345079;32;35024;-72
2022/04/09 06:02:35;;;;;;;3.65;1.45;;;;;;;9.96;100.00;98008.19;4346705;32;34417;-71
2022/04/09 06:05:21;;;;;;;2.33;1.27;;;;;;;10.03;100.00;98006.47;4342088;32;34120;-71
2022/04/09 06:08:08;;;;;;;3.97;1.50;;;;;;;9.89;100.00;98020.53;4346296;32;35660;-71
2022/04/09 06:10:55;;;;;;;5.10;2.00;;;;;;;10.05;100.00;97997.94;4340854;32;35029;-71
2022/04/09 06:13:41;;;;;;;4.45;1.75;;;;;;;9.92;100.00;98010.84;4358779;32;34783;-71
2022/04/09 06:16:27;;;;;;;3.22;1.62;;;;;;;10.12;100.00;98006.31;4356244;32;34009;-71
2022/04/09 06:19:14;;;;;;;3.55;1.90;;;;;;;10.10;100.00;98022.28;4348380;32;35360;-70
2022/04/09 06:22:01;;;;;;;2.55;1.50;;;;;;;9.98;100.00;98025.84;4340162;32;34921;-70
2022/04/09 06:24:47;;;;;;;4.53;1.70;;;;;;;10.08;100.00;98010.91;4351343;32;34681;-70
2022/04/09 06:27:41;;;;;;;3.65;1.80;;;;;;;10.18;100.00;98006.88;4358042;32;34663;-70
2022/04/09 06:30:28;;;;;;;4.00;1.50;;;;;;;10.34;100.00;98003.06;4348014;32;34646;-70
2022/04/09 06:33:15;;;;;;;2.65;1.40;;;;;;;10.33;100.00;97998.75;4355328;32;34402;-70
2022/04/09 06:36:02;;;;;;;2.58;1.25;;;;;;;10.41;100.00;97993.47;4355026;32;34688;-70
2022/04/09 06:38:49;;;;;;;3.33;1.20;;;;;;;10.45;100.00;98005.31;4359269;32;35171;-70
2022/04/09 06:41:36;;;;;;;2.20;0.98;;;;;;;10.40;100.00;98005.56;4351615;32;35489;-70
2022/04/09 06:44:24;;;;;;;2.90;1.40;;;;;;;10.28;100.00;98006.41;4356192;32;35089;-70
2022/04/09 06:47:10;;;;;;;3.03;1.50;;;;;;;10.58;100.00;98010.34;4358980;32;34514;-70
2022/04/09 06:49:58;;;;;;;2.78;1.08;;;;;;;10.55;100.00;98026.69;4346849;32;34211;-70
2022/04/09 06:52:45;;;;;;;3.05;0.93;;;;;;;10.50;100.00;98029.69;4357365;32;35188;-70
2022/04/09 06:55:32;;;;;;;2.87;1.12;;;;;;;10.65;100.00;98023.47;4358105;32;35072;-71
2022/04/09 06:58:19;;;;;;;2.17;1.10;;;;;;;10.60;100.00;98025.66;4352071;32;34699;-70
2022/04/09 07:01:05;;;;;;;2.80;1.25;;;;;;;10.42;100.00;98011.50;4352979;32;34333;-70
2022/04/09 07:03:52;;;;;;;2.08;1.10;;;;;;;10.68;100.00;98009.06;4356430;32;34715;-70
2022/04/09 07:06:42;;;;;;;2.15;1.10;;;;;;;10.25;100.00;98035.25;4359554;32;36031;-70
2022/04/09 07:09:28;;;;;;;2.92;1.10;;;;;;;10.65;100.00;98037.16;4331390;32;35656;-70
2022/04/09 07:12:15;;;;;;;3.40;1.12;;;;;;;10.86;100.00;98015.00;4333854;32;34317;-70
2022/04/09 07:15:02;;;;;;;3.05;1.30;;;;;;;10.90;100.00;98029.59;4346349;32;34606;-71
2022/04/09 07:17:48;;;;;;;5.07;1.92;;;;;;;10.62;100.00;98065.25;4346479;32;34921;-70
2022/04/09 07:20:36;;;;;;;2.53;1.42;;;;;;;9.21;100.00;98272.59;4349690;32;34188;-70
2022/04/09 07:23:22;;;;;;;2.15;0.75;;;;;;;9.03;100.00;98234.84;4335991;32;33777;-73
2022/04/09 07:26:08;;;;;;;3.28;1.05;;;;;;;9.04;100.00;98239.16;4354558;32;34718;-73
2022/04/09 07:32:18;;;;;;;1.90;0.28;;;;;;;8.56;100.00;98252.19;4807485;27;20099;-79
2022/04/09 07:35:05;;;;;;;1.55;0.25;;;;;;;8.45;100.00;98240.06;4367624;32;34383;-82
2022/04/09 07:37:55;;;;;;;1.65;0.30;;;;;;;8.66;100.00;98234.63;4377162;32;35501;-83
2022/04/09 07:40:42;;;;;;;0.52;0.30;;;;;;;8.74;100.00;98236.50;4364438;32;35030;-81
2022/04/09 07:43:29;;;;;;;1.48;0.57;;;;;;;8.63;100.00;98227.91;4373503;32;34712;-83
2022/04/09 07:46:16;;;;;;;1.52;0.32;;;;;;;8.75;100.00;98221.72;4374010;32;34939;-83
2022/04/09 07:49:02;;;;;;;1.80;0.20;;;;;;;8.81;100.00;98212.19;4373017;32;34615;-83
2022/04/09 07:51:48;;;;;;;2.00;0.40;;;;;;;8.95;100.00;98214.62;4364351;32;35010;-81
2022/04/09 07:54:35;;;;;;;1.62;0.35;;;;;;;8.84;100.00;98219.72;4376992;32;34155;-81
2022/04/09 07:57:23;;;;;;;4.05;0.75;;;;;;;9.52;100.00;98204.91;4359167;32;35099;-81
2022/04/09 08:00:10;;;;;;;1.70;0.80;;;;;;;9.56;100.00;98201.19;4350887;32;32867;-80
2022/04/09 08:02:56;;;;;;;4.50;0.50;;;;;;;9.59;100.00;98195.03;4363215;32;35546;-81
2022/04/09 08:05:43;;;;;;;1.58;0.55;;;;;;;9.77;100.00;98194.81;4358046;32;34784;-81
2022/04/09 08:08:30;;;;;;;3.25;1.00;;;;;;;9.56;100.00;98203.91;4359961;32;35333;-80
2022/04/09 08:11:16;;;;;;;12.07;6.55;;;;;;;9.77;100.00;98195.63;4346369;32;34427;-79
2022/04/09 08:14:02;;;;;;;4.50;2.28;;;;;;;9.95;100.00;98203.59;4370541;32;34849;-79
2022/04/09 08:16:49;;;;;;;4.20;1.70;;;;;;;10.03;100.00;98205.44;4360135;32;34655;-79
2022/04/09 08:19:35;;;;;;;5.85;1.92;;;;;;;10.26;100.00;98203.81;4368002;32;35178;-80
2022/04/09 08:22:22;;;;;;;9.45;4.00;;;;;;;10.25;100.00;98207.69;4359815;32;35552;-80
2022/04/09 08:25:08;;;;;;;9.85;3.80;;;;;;;9.98;100.00;98222.06;4359846;32;35752;-80
2022/04/09 08:27:55;;;;;;;9.32;4.40;;;;;;;9.76;100.00;98210.44;4359287;32;35105;-80
2022/04/09 08:30:41;;;;;;;8.50;3.33;;;;;;;9.95;100.00;98223.53;4369819;32;34110;-80
2022/04/09 08:33:28;;;;;;;11.25;4.95;;;;;;;9.67;100.00;98217.94;4371121;32;34508;-78
2022/04/09 08:36:15;;;;;;;5.68;2.62;;;;;;;9.95;100.00;98217.28;4374355;32;35520;-78
2022/04/09 08:39:01;;;;;;;1.95;0.80;;;;;;;10.03;100.00;98216.38;4359871;32;34316;-79
2022/04/09 08:41:48;;;;;;;1.52;0.52;;;;;;;9.56;100.00;98217.59;4360661;32;34026;-81
2022/04/09 08:44:35;;;;;;;3.05;0.60;;;;;;;9.61;100.00;98225.53;4372142;32;34365;-79
2022/04/09 08:47:25;;;;;;;1.02;0.50;;;;;;;9.32;100.00;98231.97;4372226;32;34992;-80
2022/04/09 08:50:14;;;;;;;2.20;0.65;;;;;;;9.68;100.00;98222.28;4371970;32;35568;-80
2022/04/09 08:53:06;;;;;;;3.70;0.93;;;;;;;9.88;100.00;98235.06;4367159;32;32944;-83
2022/04/09 08:55:53;;;;;;;1.92;0.70;;;;;;;9.88;100.00;98246.00;4387556;32;34414;-82
2022/04/09 08:58:39;;;;;;;2.33;0.70;;;;;;;9.56;100.00;98239.47;4366655;32;35871;-83
2022/04/09 09:01:29;;;;;;;3.97;1.20;;;;;;;9.91;100.00;98255.47;4380309;32;34900;-81
2022/04/09 09:04:16;;;;;;;3.05;1.10;;;;;;;9.50;100.00;98262.66;4363524;32;33933;-81
2022/04/09 09:07:24;;;;;;;3.15;1.20;;;;;;;9.64;100.00;98262.38;4359466;32;34683;-80
2022/04/09 09:10:15;;;;;;;3.30;1.12;;;;;;;9.67;100.00;98272.63;4363481;32;34990;-80
2022/04/09 09:13:05;;;;;;;3.28;1.23;;;;;;;9.63;100.00;98277.97;4374732;32;34851;-79
2022/04/09 09:15:53;;;;;;;4.30;1.05;;;;;;;9.55;100.00;98269.88;4361726;32;34974;-78
2022/04/09 09:18:40;;;;;;;3.05;1.08;;;;;;;9.58;100.00;98283.66;4371934;32;35408;-79
2022/04/09 09:21:27;;;;;;;2.00;0.80;;;;;;;9.52;100.00;98276.81;4361556;32;35645;-77
2022/04/09 09:24:14;;;;;;;3.65;1.02;;;;;;;9.31;100.00;98276.84;4371937;32;34380;-76
2022/04/09 09:27:02;;;;;;;1.98;0.88;;;;;;;9.28;100.00;98283.00;4358686;32;34039;-78
2022/04/09 09:29:53;;;;;;;2.17;1.10;;;;;;;8.99;100.00;98306.53;4355118;32;35515;-76
2022/04/09 09:32:41;;;;;;;3.17;1.10;;;;;;;8.94;100.00;98311.41;4367360;32;34804;-79
2022/04/09 09:35:46;;;;;;;2.30;1.15;;;;;;;8.94;100.00;98327.78;4373039;32;34744;-79
2022/04/09 09:38:34;;;;;;;1.75;0.93;;;;;;;8.90;100.00;98349.47;4362046;32;34087;-76
2022/04/09 09:41:25;;;;;;;2.50;1.10;;;;;;;8.55;100.00;98363.34;4374758;32;34650;-77
2022/04/09 09:44:11;;;;;;;3.35;1.35;;;;;;;8.39;100.00;98364.22;4373732;32;35945;-77
2022/04/09 09:47:07;;;;;;;1.35;0.90;;;;;;;8.22;100.00;98406.78;4370107;32;34303;-76
2022/04/09 09:49:55;;;;;;;1.48;1.02;;;;;;;7.60;100.00;98424.38;4374760;32;33793;-75
2022/04/09 09:52:42;;;;;;;2.15;0.90;;;;;;;7.14;100.00;98435.84;4363135;32;34387;-78
2022/04/09 09:55:40;;;;;;;1.17;0.82;;;;;;;6.90;100.00;98437.06;4372738;32;35941;-76
2022/04/09 09:58:28;;;;;;;2.75;1.20;;;;;;;6.82;100.00;98439.75;4374840;32;34940;-76
2022/04/09 10:02:14;;;;;;;2.22;1.20;;;;;;;6.71;100.00;98464.53;4323100;33;33641;-75
2022/04/09 10:05:23;;;;;;;1.52;1.02;;;;;;;6.69;100.00;98453.19;4329801;33;34549;-76
2022/04/09 10:08:25;;;;;;;1.40;1.20;;;;;;;6.73;100.00;98458.78;4337837;33;36047;-76
2022/04/09 10:11:32;;;;;;;2.12;1.50;;;;;;;6.59;100.00;98464.31;4326668;33;35542;-78
2022/04/09 10:15:02;;;;;;;3.33;1.50;;;;;;;6.66;100.00;98472.88;4325502;33;34060;-77
2022/04/09 10:18:06;;;;;;;3.45;1.60;;;;;;;6.68;100.00;98469.81;4297510;33;35470;-77
2022/04/09 10:21:24;;;;;;;3.58;1.37;;;;;;;6.72;100.00;98487.94;4296690;33;34435;-76
2022/04/09 10:25:04;;;;;;;2.40;1.58;;;;;;;6.76;100.00;98488.09;4296155;33;35531;-77
2022/04/09 10:31:51;;;;;;;2.20;1.35;;;;;;;6.58;100.00;98472.81;4268373;33;34536;-75
2022/04/09 10:35:04;;;;;;;1.40;1.23;;;;;;;6.63;97.91;98465.31;4245529;33;35878;-76
2022/04/09 10:38:39;;;;;;;1.83;1.50;;;;;;;6.47;96.89;98485.88;4242515;33;34542;-75
2022/04/09 10:41:48;;;;;;;1.77;1.30;;;;;;;6.58;96.73;98476.34;4246898;33;35198;-75
2022/04/09 10:44:56;;;;;;;1.40;1.15;;;;;;;6.70;96.87;98492.09;4267577;33;33338;-76
2022/04/09 10:48:34;;;;;;;1.20;1.10;;;;;;;6.45;94.69;98545.25;4246354;33;34912;-75
2022/04/09 10:52:15;;;;;;;1.35;0.88;;;;;;;6.38;92.75;98537.53;4246491;33;34654;-75
2022/04/09 10:55:20;;;;;;;2.35;1.12;;;;;;;6.31;91.57;98529.78;4261874;33;34087;-74
2022/04/09 11:02:38;;;;;;;1.20;0.90;;;;;;;6.33;91.95;98534.12;4237778;33;35908;-75
2022/04/09 11:06:23;;;;;;;1.92;1.20;;;;;;;6.11;88.58;98538.44;4223860;33;35010;-76
2022/04/09 11:16:55;;;;;;;3.03;1.58;;;;;;;6.66;87.08;98562.69;4233475;33;37180;-76
2022/04/09 11:20:32;;;;;;;2.22;1.25;;;;;;;6.57;87.37;98589.03;4294035;33;35255;-75
2022/04/09 11:27:31;;;;;;;1.85;1.20;;;;;;;6.40;85.41;98606.03;4259189;33;35419;-76
2022/04/09 11:34:58;;;;;;;1.92;1.23;;;;;;;6.67;86.30;98624.16;4218428;33;34962;-76
2022/04/09 11:42:05;;;;;;;;;;;;;;;6.56;83.04;98644.59;4232528;33;36465;-74
2022/04/09 11:45:24;;;;;;;1.73;1.00;;;;;;;7.04;82.16;98634.97;4224323;33;36039;-75
2022/04/09 11:48:33;;;;;;;2.30;0.90;;;;;;;7.09;80.46;98638.38;4226331;33;35450;-74
2022/04/09 11:58:52;;;;;;;2.75;1.40;;;;;;;7.55;78.22;98690.84;4478222;32;33908;-77
2022/04/09 12:02:32;;;;;;;4.30;1.40;;;;;;;6.67;79.19;98673.16;4438963;32;34424;-76
2022/04/09 12:06:38;;;;;;;2.45;1.27;;;;;;;6.70;80.14;98688.88;4439151;32;35050;-76
2022/04/09 12:10:13;;;;;;;2.62;1.00;;;;;;;6.59;77.00;98695.69;4354282;32;33584;-78
2022/04/09 12:16:54;;;;;;;5.90;1.90;;;;;;;6.65;77.10;98710.78;4352058;32;34496;-73
2022/04/09 12:20:42;;;;;;;2.28;1.50;;;;;;;6.56;76.04;98709.91;4352712;32;35115;-74
2022/04/09 12:24:13;;;;;;;2.95;1.40;;;;;;;6.49;75.08;98713.06;4297967;33;34139;-76
2022/04/09 12:28:46;;;;;;;2.00;1.40;;;;;;;6.42;75.09;98728.97;4269840;33;33676;-74
2022/04/09 12:39:22;;;;;;;8.77;3.72;;;;;;;7.12;73.11;98703.13;4446930;31;2562154;-75
2022/04/09 12:46:14;;;;;;;2.72;1.73;;;;;;;6.65;74.34;98716.22;4515755;31;35527;-73
2022/04/09 12:50:13;;;;;;;4.10;2.30;;;;;;;6.48;73.00;98705.19;4439041;32;35633;-75
2022/04/09 12:53:55;;;;;;;3.20;1.97;;;;;;;6.64;73.79;98697.50;4444419;32;34387;-75
2022/04/09 13:05:32;;;;;;;4.35;2.45;;;;;;;6.56;74.90;98715.34;4420371;32;34920;-77
2022/04/09 13:08:49;;;;;;;5.82;2.87;;;;;;;6.60;74.50;98708.16;4408401;32;34440;-76
2022/04/09 13:12:15;;;;;;;5.20;2.45;;;;;;;6.61;74.57;98714.44;4403575;32;33766;-76
2022/04/09 13:15:15;;;;;;;6.55;2.72;;;;;;;6.68;73.62;98731.94;4420896;32;34659;-77
2022/04/09 13:18:18;;;;;;;5.60;2.95;;;;;;;6.70;74.09;98737.09;4407103;32;35967;-76
2022/04/09 13:25:28;;;;;;;7.30;3.30;;;;;;;6.54;73.95;98769.28;4302578;33;34244;-74
2022/04/09 13:28:52;;;;;;;5.43;2.90;;;;;;;6.49;74.08;98761.25;4311209;33;34699;-75
2022/04/09 13:32:06;;;;;;;6.87;3.33;;;;;;;6.52;73.71;98771.50;4323666;33;35202;-77
2022/04/09 13:39:26;;;;;;;6.85;3.55;;;;;;;6.80;72.65;98764.06;4276452;33;34050;-76
2022/04/09 13:42:20;;;;;;;5.55;2.95;;;;;;;6.72;70.98;98781.16;4297054;33;34143;-76
2022/04/09 13:45:42;;;;;;;4.75;3.17;;;;;;;6.73;72.24;98780.81;4300576;33;34712;-77
2022/04/09 13:49:06;;;;;;;5.50;3.35;;;;;;;6.85;72.55;98790.38;4275849;33;32905;-75
2022/04/09 13:52:12;;;;;;;5.82;3.65;;;;;;;7.06;70.68;98791.53;4259193;33;34049;-77
2022/04/09 13:55:10;;;;;;;4.97;3.15;;;;;;;7.17;70.80;98792.91;4261825;33;35231;-77
2022/04/09 13:58:15;;;;;;;5.15;3.10;;;;;;;7.39;69.58;98769.47;4261345;33;34972;-77
2022/04/09 14:01:16;;;;;;;4.10;3.15;;;;;;;7.42;69.10;98790.66;4289368;33;34403;-77
2022/04/09 14:11:35;;;;;;;4.47;3.30;;;;;;;7.62;66.73;98743.78;4262920;33;34997;-84
2022/04/09 14:18:28;;;;;;;4.55;2.87;;;;;;;7.24;67.39;98737.16;4300885;33;34148;-82
2022/04/09 14:31:33;;;;;;;9.18;3.60;;;;;;;7.09;68.63;98758.22;4788722;27;20685;-85
2022/04/09 14:34:24;;;;;;;6.45;3.40;;;;;;;7.10;68.44;98753.56;4366911;32;34113;-89
2022/04/09 14:37:11;;;;;;;6.35;3.60;;;;;;;7.15;68.37;98773.31;4362950;32;35017;-90
2022/04/09 14:39:59;;;;;;;8.38;3.55;;;;;;;7.19;67.96;98784.41;4361912;32;34499;-85
2022/04/09 14:42:56;;;;;;;7.90;3.92;;;;;;;6.98;67.62;98808.59;4349810;32;33764;-89
2022/04/09 14:45:51;;;;;;;6.05;3.30;;;;;;;7.12;66.62;98803.91;4365699;32;34606;-84
2022/04/09 14:48:39;;;;;;;5.87;3.62;;;;;;;7.20;66.10;98792.28;4355068;32;35061;-90
2022/04/09 14:51:25;;;;;;;6.85;3.45;;;;;;;7.12;65.81;98801.19;4365121;32;35523;-87
2022/04/09 14:54:11;;;;;;;9.93;4.65;;;;;;;6.99;66.26;98813.72;4360947;32;35031;-88
2022/04/09 14:57:00;;;;;;;5.85;3.25;;;;;;;7.06;66.62;98834.28;4350075;32;34822;-90
2022/04/09 14:59:46;;;;;;;5.97;2.97;;;;;;;7.06;68.10;98817.94;4358125;32;34539;-89
2022/04/09 15:02:41;;;;;;;5.22;3.00;;;;;;;7.15;64.94;98808.75;4352748;32;35433;-88
2022/04/09 15:05:28;;;;;;;6.65;3.10;;;;;;;6.96;65.17;98789.03;4353417;32;34025;-87
2022/04/09 15:08:16;;;;;;;5.53;2.28;;;;;;;7.25;62.98;98790.53;4348948;32;35314;-89
2022/04/09 15:11:02;;;;;;;5.43;3.33;;;;;;;7.03;62.19;98792.16;4347198;32;35050;-88
2022/04/09 15:13:53;;;;;;;5.03;2.12;;;;;;;7.16;62.84;98796.72;4349522;32;34541;-79
2022/04/09 15:16:46;;;;;;;7.65;2.55;;;;;;;7.16;61.59;98799.44;4348601;32;33896;-88
2022/04/09 15:19:33;;;;;;;7.68;2.78;;;;;;;7.21;59.99;98803.97;4355979;32;34635;-86
2022/04/09 15:22:19;;;;;;;4.93;2.30;;;;;;;7.49;60.32;98798.41;4347600;32;35539;-84
2022/04/09 15:25:06;;;;;;;8.65;2.30;;;;;;;7.14;60.53;98809.03;4341038;32;34071;-87
2022/04/09 15:27:54;;;;;;;6.05;2.22;;;;;;;7.07;60.21;98825.03;4351547;32;34096;-84
2022/04/09 15:30:42;;;;;;;9.00;2.92;;;;;;;7.25;60.54;98815.06;4350283;32;35142;-89
2022/04/09 15:33:31;;;;;;;5.95;2.60;;;;;;;7.10;60.43;98825.19;4377698;32;35384;-82
2022/04/09 15:36:17;;;;;;;4.55;2.40;;;;;;;7.15;61.25;98822.38;4354622;32;34796;-84